createdAt,value
2019-02-07T00:02:26.394Z,65.67
2019-02-07T00:04:56.795Z,64.60
2019-02-07T00:07:28.694Z,66.50
2019-02-07T00:09:58.798Z,69.60
2019-02-07T00:12:28.814Z,66.83
2019-02-07T00:14:59.077Z,60.73
2019-02-07T00:17:29.218Z,70.07
2019-02-07T00:19:59.254Z,72.20
2019-02-07T00:22:29.174Z,66.33
2019-02-07T00:24:59.274Z,61.60
2019-02-07T00:27:29.979Z,61.57
2019-02-07T00:30:01.995Z,61.97
2019-02-07T00:32:32.495Z,61.07
2019-02-07T00:35:02.874Z,64.80
2019-02-07T00:37:33.194Z,66.67
2019-02-07T00:40:03.614Z,66.23
2019-02-07T00:42:33.774Z,68.50
2019-02-07T00:45:05.663Z,72.53
2019-02-07T00:47:36.134Z,69.80
2019-02-07T00:50:08.935Z,70.10
2019-02-07T00:52:38.934Z,74.87
2019-02-07T00:55:14.497Z,71.37
2019-02-07T00:57:45.076Z,68.07
2019-02-07T01:00:18.195Z,66.03
2019-02-07T01:02:48.874Z,61.13
2019-02-07T01:05:19.734Z,59.10
2019-02-07T01:07:50.074Z,55.53
2019-02-07T01:10:26.037Z,58.43
2019-02-07T01:12:56.342Z,55.07
2019-02-07T01:15:28.714Z,52.93
2019-02-07T01:17:58.714Z,51.50
2019-02-07T01:20:29.054Z,50.90
2019-02-07T01:22:59.376Z,48.77
2019-02-07T01:25:29.535Z,47.95
2019-02-07T01:28:00.774Z,44.90
2019-02-07T01:30:31.454Z,51.20
2019-02-07T01:33:01.717Z,45.53
2019-02-07T01:35:31.815Z,46.10
2019-02-07T01:38:01.936Z,46.33
2019-02-07T01:40:32.054Z,46.73
2019-02-07T01:43:02.076Z,47.80
2019-02-07T01:45:32.314Z,46.00
2019-02-07T01:48:02.854Z,46.75
2019-02-07T01:50:33.482Z,47.10
2019-02-07T01:53:03.674Z,47.85
2019-02-07T01:55:33.714Z,48.20
2019-02-07T01:58:04.599Z,47.53
2019-02-07T02:00:34.976Z,46.47
2019-02-07T02:03:05.394Z,43.85
2019-02-07T02:05:35.595Z,43.00
2019-02-07T02:08:05.817Z,43.23
2019-02-07T02:10:35.954Z,42.95
2019-02-07T02:15:35.386Z,42.80
2019-02-07T02:18:06.062Z,44.20
2019-02-07T02:20:36.324Z,43.90
2019-02-07T02:23:06.523Z,43.10
2019-02-07T02:25:36.943Z,41.45
2019-02-07T02:28:07.363Z,41.90
2019-02-07T02:30:37.803Z,40.75
2019-02-07T02:33:07.983Z,39.40
2019-02-07T02:35:38.359Z,41.10
2019-02-07T02:38:08.363Z,39.93
2019-02-07T02:40:38.783Z,36.60
2019-02-07T02:43:08.803Z,35.70
2019-02-07T02:48:08.255Z,35.60
2019-02-07T02:50:38.744Z,34.90
2019-02-07T02:53:09.123Z,31.85
2019-02-07T02:55:40.818Z,43.80
2019-02-07T03:00:42.019Z,31.50
2019-02-07T03:08:27.222Z,29.40
2019-02-07T03:11:08.272Z,30.30
2019-02-07T03:13:46.991Z,29.10
2019-02-07T03:16:35.622Z,30.70
2019-02-07T03:22:11.923Z,29.05
2019-02-07T03:24:43.662Z,27.85
2019-02-07T03:29:52.503Z,28.20
2019-02-07T03:32:24.263Z,28.30
2019-02-07T03:40:26.462Z,28.40
2019-02-07T03:45:38.139Z,28.30
2019-02-07T03:48:13.099Z,28.75
2019-02-07T03:50:44.846Z,27.95
2019-02-07T03:53:34.538Z,27.20
2019-02-07T03:56:10.490Z,28.55
2019-02-07T03:58:58.721Z,27.30
2019-02-07T04:04:08.083Z,26.90
2019-02-07T04:06:46.483Z,27.10
2019-02-07T04:09:27.471Z,26.90
2019-02-07T04:12:12.630Z,27.40
2019-02-07T04:14:50.430Z,28.10
2019-02-07T04:20:08.480Z,27.70
2019-02-07T04:25:38.349Z,27.30
2019-02-07T04:31:02.336Z,24.40
2019-02-07T04:33:34.045Z,27.20
2019-02-07T04:36:05.803Z,24.20
2019-02-07T04:38:43.309Z,25.00
2019-02-07T04:41:33.706Z,24.80
2019-02-07T04:44:20.624Z,23.90
2019-02-07T04:46:59.534Z,23.85
2019-02-07T04:49:31.544Z,25.00
2019-02-07T04:52:12.199Z,24.40
2019-02-07T04:55:00.538Z,26.07
2019-02-07T04:57:33.206Z,24.80
2019-02-07T05:00:09.988Z,24.40
2019-02-07T05:02:41.518Z,24.37
2019-02-07T05:05:13.482Z,26.13
2019-02-07T05:07:45.258Z,24.65
2019-02-07T05:10:26.414Z,24.17
2019-02-07T05:12:58.122Z,24.83
2019-02-07T05:15:39.141Z,25.57
2019-02-07T05:18:27.685Z,23.90
2019-02-07T05:21:04.962Z,23.87
2019-02-07T05:23:39.783Z,24.10
2019-02-07T05:26:23.544Z,24.17
2019-02-07T05:29:01.267Z,23.80
2019-02-07T05:31:42.111Z,23.90
2019-02-07T05:34:17.144Z,25.40
2019-02-07T05:36:49.217Z,25.40
2019-02-07T05:39:20.984Z,24.60
2019-02-07T05:41:53.029Z,23.13
2019-02-07T05:44:25.082Z,24.37
2019-02-07T05:46:56.786Z,24.27
2019-02-07T05:49:40.998Z,24.70
2019-02-07T05:52:21.444Z,24.63
2019-02-07T05:55:11.958Z,24.65
2019-02-07T05:57:43.609Z,23.30
2019-02-07T06:00:33.883Z,23.90
2019-02-07T06:03:20.999Z,25.70
2019-02-07T06:08:23.801Z,26.70
2019-02-07T06:11:01.615Z,26.63
2019-02-07T06:13:34.038Z,28.10
2019-02-07T06:16:11.884Z,28.37
2019-02-07T06:18:59.919Z,28.30
2019-02-07T06:21:32.080Z,27.55
2019-02-07T06:24:03.936Z,27.03
2019-02-07T06:26:54.337Z,26.50
2019-02-07T06:29:29.569Z,26.23
2019-02-07T06:32:10.327Z,26.57
2019-02-07T06:34:58.774Z,25.60
2019-02-07T06:37:33.821Z,24.95
2019-02-07T06:40:09.900Z,25.40
2019-02-07T06:42:48.088Z,24.57
2019-02-07T06:45:20.972Z,26.00
2019-02-07T06:47:53.063Z,24.87
2019-02-07T06:50:30.973Z,27.70
2019-02-07T06:53:06.169Z,27.73
2019-02-07T06:55:37.929Z,26.23
2019-02-07T06:58:24.928Z,26.40
2019-02-07T07:01:09.619Z,27.13
2019-02-07T07:03:47.417Z,26.00
2019-02-07T07:06:25.449Z,26.33
2019-02-07T07:08:57.363Z,26.73
2019-02-07T07:11:28.990Z,25.97
2019-02-07T07:14:03.642Z,26.07
2019-02-07T07:16:35.501Z,24.83
2019-02-07T07:19:07.618Z,26.23
2019-02-07T07:21:58.184Z,25.60
2019-02-07T07:24:30.213Z,25.07
2019-02-07T07:27:16.936Z,26.33
2019-02-07T07:29:48.760Z,26.10
2019-02-07T07:32:23.502Z,27.03
2019-02-07T07:35:08.268Z,26.27
2019-02-07T07:37:55.073Z,25.37
2019-02-07T07:40:27.451Z,25.90
2019-02-07T07:43:02.995Z,23.83
2019-02-07T07:45:37.726Z,24.77
2019-02-07T07:48:21.456Z,25.17
2019-02-07T07:50:59.262Z,24.37
2019-02-07T07:53:30.900Z,25.93
2019-02-07T07:56:08.905Z,23.13
2019-02-07T07:58:53.382Z,23.87
2019-02-07T08:01:31.114Z,24.27
2019-02-07T08:04:05.683Z,21.93
2019-02-07T08:06:37.703Z,21.23
2019-02-07T08:09:12.679Z,23.47
2019-02-07T08:11:44.653Z,23.20
2019-02-07T08:14:32.990Z,24.40
2019-02-07T08:17:10.988Z,22.70
2019-02-07T08:19:49.325Z,23.50
2019-02-07T08:22:24.237Z,22.20
2019-02-07T08:24:56.522Z,23.60
2019-02-07T08:27:45.555Z,23.50
2019-02-07T08:30:18.126Z,22.70
2019-02-07T08:32:49.895Z,23.00
2019-02-07T08:35:21.422Z,23.53
2019-02-07T08:37:58.044Z,22.50
2019-02-07T08:40:29.152Z,22.17
2019-02-07T08:43:20.059Z,23.60
2019-02-07T08:45:56.515Z,23.23
2019-02-07T08:48:32.275Z,22.80
2019-02-07T08:51:22.666Z,19.70
2019-02-07T08:54:03.541Z,20.53
2019-02-07T08:56:35.804Z,20.73
2019-02-07T08:59:24.152Z,21.97
2019-02-07T09:01:58.772Z,20.10
2019-02-07T09:04:40.362Z,20.47
2019-02-07T09:07:12.732Z,19.90
2019-02-07T09:09:44.442Z,20.50
2019-02-07T09:12:32.218Z,20.23
2019-02-07T09:15:04.291Z,21.50
2019-02-07T09:17:39.032Z,20.83
2019-02-07T09:20:16.105Z,21.27
2019-02-07T09:23:06.761Z,20.80
2019-02-07T09:25:44.650Z,20.80
2019-02-07T09:28:16.326Z,19.73
2019-02-07T09:31:06.838Z,20.67
2019-02-07T09:33:53.975Z,20.70
2019-02-07T09:36:40.674Z,19.80
2019-02-07T09:39:30.652Z,18.30
2019-02-07T09:42:05.396Z,19.53
2019-02-07T09:44:56.072Z,20.20
2019-02-07T09:47:27.779Z,19.67
2019-02-07T09:50:17.518Z,20.10
2019-02-07T09:53:05.037Z,19.57
2019-02-07T09:55:39.551Z,18.73
2019-02-07T09:58:11.632Z,19.33
2019-02-07T10:00:59.245Z,18.30
2019-02-07T10:03:37.244Z,18.30
2019-02-07T10:06:28.666Z,17.33
2019-02-07T10:09:12.318Z,17.10
2019-02-07T10:11:44.055Z,16.43
2019-02-07T10:14:21.757Z,18.20
2019-02-07T10:17:05.759Z,17.33
2019-02-07T10:19:40.213Z,17.57
2019-02-07T10:22:11.976Z,16.40
2019-02-07T10:24:45.785Z,17.20
2019-02-07T10:27:17.459Z,17.10
2019-02-07T10:30:04.315Z,16.83
2019-02-07T10:32:38.779Z,15.67
2019-02-07T10:35:22.465Z,16.67
2019-02-07T10:37:51.390Z,16.13
2019-02-07T10:40:41.774Z,15.70
2019-02-07T10:43:15.277Z,15.20
2019-02-07T10:45:47.171Z,15.53
2019-02-07T10:48:19.089Z,14.83
2019-02-07T10:51:07.650Z,14.53
2019-02-07T10:53:42.297Z,15.00
2019-02-07T10:56:23.421Z,15.80
2019-02-07T10:59:15.492Z,15.47
2019-02-07T11:01:59.837Z,14.60
2019-02-07T11:04:37.559Z,15.50
2019-02-07T11:07:09.248Z,14.23
2019-02-07T11:09:56.904Z,14.40
2019-02-07T11:12:28.559Z,15.53
2019-02-07T11:15:00.303Z,14.37
2019-02-07T11:17:50.307Z,14.60
2019-02-07T11:20:22.169Z,14.17
2019-02-07T11:23:03.340Z,14.33
2019-02-07T11:25:44.826Z,14.57
2019-02-07T11:28:29.076Z,14.30
2019-02-07T11:31:03.495Z,16.30
2019-02-07T11:33:38.339Z,15.30
2019-02-07T11:36:16.428Z,14.47
2019-02-07T11:38:48.231Z,15.10
2019-02-07T11:41:22.503Z,15.03
2019-02-07T11:43:57.831Z,14.43
2019-02-07T11:46:48.786Z,14.03
2019-02-07T11:49:38.318Z,14.37
2019-02-07T11:52:19.150Z,13.93
2019-02-07T11:54:57.503Z,14.20
2019-02-07T11:57:29.947Z,13.33
2019-02-07T12:00:01.840Z,14.30
2019-02-07T12:02:50.198Z,14.20
2019-02-07T12:05:30.856Z,13.30
2019-02-07T12:08:19.076Z,14.27
2019-02-07T12:10:51.152Z,14.13
2019-02-07T12:13:27.212Z,12.80
2019-02-07T12:16:02.553Z,14.13
2019-02-07T12:18:49.550Z,13.63
2019-02-07T12:21:40.156Z,13.90
2019-02-07T12:24:28.222Z,11.70
2019-02-07T12:27:02.631Z,11.50
2019-02-07T12:29:49.628Z,11.47
2019-02-07T12:32:36.571Z,11.87
2019-02-07T12:35:14.034Z,12.30
2019-02-07T12:37:45.802Z,12.60
2019-02-07T12:40:17.959Z,13.50
2019-02-07T12:43:06.202Z,13.07
2019-02-07T12:45:51.272Z,13.37
2019-02-07T12:48:24.233Z,13.87
2019-02-07T12:51:09.105Z,13.90
2019-02-07T12:53:44.152Z,14.63
2019-02-07T12:56:21.537Z,12.87
2019-02-07T12:58:59.540Z,13.60
2019-02-07T13:01:47.267Z,13.50
2019-02-07T13:04:26.397Z,13.00
2019-02-07T13:06:58.258Z,12.87
2019-02-07T13:09:35.311Z,13.43
2019-02-07T13:12:13.264Z,13.73
2019-02-07T13:14:45.140Z,12.97
2019-02-07T13:17:23.530Z,13.00
2019-02-07T13:20:13.931Z,12.97
2019-02-07T13:22:48.518Z,11.90
2019-02-07T13:25:26.448Z,12.83
2019-02-07T13:27:58.222Z,12.87
2019-02-07T13:30:30.329Z,13.67
2019-02-07T13:33:18.618Z,17.23
2019-02-07T13:35:50.621Z,15.03
2019-02-07T13:38:38.181Z,13.93
2019-02-07T13:41:09.744Z,12.50
2019-02-07T13:43:58.076Z,12.53
2019-02-07T13:46:30.352Z,11.23
2019-02-07T13:49:18.793Z,11.23
2019-02-07T13:51:50.448Z,11.53
2019-02-07T13:54:37.155Z,11.17
2019-02-07T13:57:25.204Z,11.60
2019-02-07T14:00:08.723Z,10.73
2019-02-07T14:02:54.104Z,12.10
2019-02-07T14:05:41.936Z,13.70
2019-02-07T14:08:13.684Z,13.07
2019-02-07T14:10:48.574Z,15.73
2019-02-07T14:13:40.936Z,16.43
2019-02-07T14:16:29.713Z,15.90
2019-02-07T14:19:17.952Z,15.20
2019-02-07T14:21:49.892Z,15.33
2019-02-07T14:24:21.716Z,16.57
2019-02-07T14:26:56.524Z,16.47
2019-02-07T14:29:46.787Z,17.20
2019-02-07T14:32:35.234Z,17.77
2019-02-07T14:35:15.401Z,16.80
2019-02-07T14:37:50.053Z,17.90
2019-02-07T14:40:22.686Z,15.23
2019-02-07T14:42:54.865Z,17.17
2019-02-07T14:45:32.670Z,19.17
2019-02-07T14:48:03.185Z,19.43
2019-02-07T14:50:33.440Z,18.87
2019-02-07T14:53:03.922Z,19.53
2019-02-07T14:55:34.051Z,19.77
2019-02-07T14:58:04.495Z,21.13
2019-02-07T15:00:34.574Z,21.77
2019-02-07T15:03:04.935Z,33.53
2019-02-07T15:05:35.113Z,40.17
2019-02-07T15:08:05.626Z,53.30
2019-02-07T15:10:35.891Z,52.40
2019-02-07T15:13:06.010Z,43.73
2019-02-07T15:15:36.152Z,28.00
2019-02-07T15:18:06.641Z,18.83
2019-02-07T15:20:37.012Z,15.73
2019-02-07T15:23:06.965Z,15.47
2019-02-07T15:25:37.093Z,15.40
2019-02-07T15:28:07.344Z,16.47
2019-02-07T15:30:37.646Z,14.80
2019-02-07T15:33:07.766Z,15.70
2019-02-07T15:35:42.430Z,16.23
2019-02-07T15:38:12.790Z,14.97
2019-02-07T15:40:43.739Z,15.23
2019-02-07T15:43:13.954Z,15.90
2019-02-07T15:45:44.334Z,15.23
2019-02-07T15:48:14.437Z,11.80
2019-02-07T15:50:44.787Z,11.90
2019-02-07T15:53:15.015Z,12.10
2019-02-07T15:55:45.317Z,12.90
2019-02-07T15:58:16.041Z,12.33
2019-02-07T16:00:50.424Z,12.57
2019-02-07T16:03:38.063Z,69.57
2019-02-07T16:06:13.764Z,20.63
2019-02-07T16:08:44.954Z,17.93
2019-02-07T16:11:16.725Z,15.40
2019-02-07T16:13:47.200Z,14.97
2019-02-07T16:16:17.969Z,14.83
2019-02-07T16:18:48.775Z,14.77
2019-02-07T16:21:19.441Z,15.10
2019-02-07T16:23:49.564Z,16.47
2019-02-07T16:26:20.123Z,16.03
2019-02-07T16:28:50.642Z,15.07
2019-02-07T16:31:21.338Z,15.30
2019-02-07T16:33:52.041Z,15.10
2019-02-07T16:36:22.802Z,14.33
2019-02-07T16:38:54.407Z,14.83
2019-02-07T16:41:25.129Z,14.30
2019-02-07T16:43:57.681Z,13.93
2019-02-07T16:46:28.201Z,15.37
2019-02-07T16:48:58.839Z,14.10
2019-02-07T16:51:31.895Z,13.77
2019-02-07T16:54:02.804Z,15.50
2019-02-07T16:56:33.044Z,14.60
2019-02-07T16:59:03.480Z,14.63
2019-02-07T17:01:34.202Z,14.17
2019-02-07T17:04:08.642Z,14.67
2019-02-07T17:06:41.622Z,14.47
2019-02-07T17:09:14.724Z,13.57
2019-02-07T17:11:45.641Z,19.20
2019-02-07T17:14:16.569Z,17.23
2019-02-07T17:16:47.481Z,15.70
2019-02-07T17:19:17.936Z,16.50
2019-02-07T17:21:48.401Z,17.43
2019-02-07T17:24:19.245Z,43.67
2019-02-07T17:26:50.240Z,33.73
2019-02-07T17:29:21.257Z,31.53
2019-02-07T17:31:52.083Z,29.87
2019-02-07T17:34:22.283Z,27.60
2019-02-07T17:36:52.961Z,28.20
2019-02-07T17:39:23.444Z,25.20
2019-02-07T17:42:02.363Z,26.10
2019-02-07T17:44:34.330Z,24.77
2019-02-07T17:47:05.641Z,23.83
2019-02-07T17:49:37.241Z,23.67
2019-02-07T17:52:08.128Z,22.07
2019-02-07T17:54:41.841Z,23.27
2019-02-07T17:57:13.126Z,21.40
2019-02-07T17:59:43.802Z,19.97
2019-02-07T18:02:15.106Z,20.73
2019-02-07T18:04:46.162Z,22.87
2019-02-07T18:07:16.763Z,22.57
2019-02-07T18:09:48.885Z,23.97
2019-02-07T18:12:19.602Z,27.50
2019-02-07T18:14:50.167Z,25.83
2019-02-07T18:17:20.721Z,27.07
2019-02-07T18:19:51.281Z,26.50
2019-02-07T18:22:22.033Z,25.40
2019-02-07T18:24:52.251Z,24.13
2019-02-07T18:27:22.625Z,24.50
2019-02-07T18:29:52.841Z,25.33
2019-02-07T18:32:23.193Z,25.77
2019-02-07T18:34:53.755Z,26.03
2019-02-07T18:37:24.200Z,25.43
2019-02-07T18:39:54.560Z,23.40
2019-02-07T18:42:24.631Z,24.53
2019-02-07T18:44:54.882Z,24.67
2019-02-07T18:47:25.171Z,23.27
2019-02-07T18:49:55.591Z,25.27
2019-02-07T18:52:26.048Z,25.90
2019-02-07T18:54:56.443Z,24.20
2019-02-07T18:57:26.661Z,25.37
2019-02-07T18:59:56.762Z,24.70
2019-02-07T19:02:26.755Z,24.13
2019-02-07T19:04:57.383Z,25.47
2019-02-07T19:07:27.774Z,24.30
2019-02-07T19:09:57.656Z,23.67
2019-02-07T19:12:27.875Z,25.03
2019-02-07T19:14:59.026Z,25.30
2019-02-07T19:17:29.163Z,25.40
2019-02-07T19:20:00.438Z,28.33
2019-02-07T19:22:31.755Z,32.73
2019-02-07T19:25:02.056Z,44.23
2019-02-07T19:27:32.424Z,36.60
2019-02-07T19:30:02.496Z,28.07
2019-02-07T19:32:33.441Z,27.87
2019-02-07T19:35:03.481Z,26.30
2019-02-07T19:37:33.781Z,26.50
2019-02-07T19:40:05.104Z,26.57
2019-02-07T19:42:35.770Z,24.63
2019-02-07T19:45:09.116Z,24.53
2019-02-07T19:47:41.119Z,24.63
2019-02-07T19:50:16.856Z,24.87
2019-02-07T19:52:47.243Z,24.77
2019-02-07T19:55:19.735Z,23.53
2019-02-07T19:57:51.172Z,22.87
2019-02-07T20:00:27.506Z,23.17
2019-02-07T20:03:04.892Z,22.23
2019-02-07T20:05:36.910Z,21.47
2019-02-07T20:08:07.380Z,22.00
2019-02-07T20:10:38.013Z,21.77
2019-02-07T20:13:08.200Z,22.60
2019-02-07T20:15:41.294Z,22.53
2019-02-07T20:18:12.814Z,20.87
2019-02-07T20:20:43.942Z,21.47
2019-02-07T20:23:14.416Z,21.97
2019-02-07T20:25:45.214Z,21.43
2019-02-07T20:28:15.534Z,22.43
2019-02-07T20:30:46.345Z,21.63
2019-02-07T20:33:17.134Z,23.43
2019-02-07T20:35:47.734Z,21.87
2019-02-07T20:38:18.057Z,22.47
2019-02-07T20:40:48.534Z,22.47
2019-02-07T20:43:21.053Z,23.30
2019-02-07T20:45:51.453Z,24.37
2019-02-07T20:48:22.277Z,23.70
2019-02-07T20:50:53.253Z,23.87
2019-02-07T20:53:23.973Z,23.37
2019-02-07T20:55:54.616Z,23.70
2019-02-07T20:58:26.213Z,24.37
2019-02-07T21:00:57.014Z,25.50
2019-02-07T21:03:27.575Z,25.00
2019-02-07T21:05:58.253Z,24.00
2019-02-07T21:08:28.979Z,25.23
2019-02-07T21:10:59.341Z,23.67
2019-02-07T21:13:30.094Z,23.93
2019-02-07T21:16:00.653Z,24.60
2019-02-07T21:18:31.415Z,25.30
2019-02-07T21:21:02.145Z,24.57
2019-02-07T21:23:33.174Z,23.47
2019-02-07T21:26:03.901Z,23.40
2019-02-07T21:28:34.494Z,23.70
2019-02-07T21:31:06.454Z,25.73
2019-02-07T21:33:37.135Z,24.53
2019-02-07T21:36:07.748Z,24.47
2019-02-07T21:38:38.896Z,24.50
2019-02-07T21:41:09.662Z,25.93
2019-02-07T21:43:40.573Z,26.00
2019-02-07T21:46:11.374Z,22.80
2019-02-07T21:48:42.021Z,24.83
2019-02-07T21:51:12.342Z,26.07
2019-02-07T21:53:43.415Z,26.00
2019-02-07T21:56:13.901Z,27.53
2019-02-07T21:58:44.694Z,27.90
2019-02-07T22:01:14.966Z,26.03
2019-02-07T22:03:47.006Z,25.60
2019-02-07T22:06:18.727Z,26.27
2019-02-07T22:08:49.353Z,27.43
2019-02-07T22:11:19.807Z,25.67
2019-02-07T22:13:50.411Z,27.73
2019-02-07T22:16:21.268Z,26.90
2019-02-07T22:18:53.126Z,28.40
2019-02-07T22:21:23.309Z,27.07
2019-02-07T22:23:53.702Z,27.23
2019-02-07T22:26:24.417Z,27.83
2019-02-07T22:28:54.734Z,27.40
2019-02-07T22:31:25.008Z,27.33
2019-02-07T22:33:55.527Z,26.93
2019-02-07T22:36:29.995Z,26.40
2019-02-07T22:39:01.327Z,27.40
2019-02-07T22:41:33.174Z,26.90
2019-02-07T22:44:03.334Z,27.87
2019-02-07T22:46:34.545Z,27.70
2019-02-07T22:49:05.166Z,27.53
2019-02-07T22:51:35.587Z,29.63
2019-02-07T22:54:06.174Z,29.70
2019-02-07T22:56:44.924Z,33.77
2019-02-07T22:59:08.287Z,30.30
2019-02-07T23:01:41.294Z,30.10
2019-02-07T23:04:11.829Z,29.40
2019-02-07T23:06:42.167Z,28.23
2019-02-07T23:09:13.514Z,29.27
2019-02-07T23:11:44.114Z,27.80
2019-02-07T23:14:15.187Z,29.00
2019-02-07T23:16:45.780Z,29.07
2019-02-07T23:19:16.060Z,29.93
2019-02-07T23:21:46.075Z,28.77
2019-02-07T23:24:16.520Z,29.47
2019-02-07T23:26:46.539Z,29.27
2019-02-07T23:29:16.820Z,30.07
2019-02-07T23:31:47.110Z,28.53
2019-02-07T23:34:17.297Z,29.13
2019-02-07T23:36:47.566Z,28.93
2019-02-07T23:39:17.915Z,30.30
2019-02-07T23:41:48.678Z,29.40
2019-02-07T23:44:19.190Z,32.03
2019-02-07T23:46:49.545Z,30.53
2019-02-07T23:49:19.743Z,29.70
2019-02-07T23:51:50.050Z,30.00
2019-02-07T23:54:20.365Z,31.57
2019-02-07T23:56:51.051Z,32.00
2019-02-07T23:59:21.019Z,29.40
